createdAt,value
2023-07-22T00:02:18.954Z,99919.44
2023-07-22T00:05:27.299Z,99906.38
2023-07-22T00:08:43.315Z,99901.66
2023-07-22T00:11:51.307Z,99894.91
2023-07-22T00:14:59.843Z,99895.59
2023-07-22T00:18:08.346Z,99894.81
2023-07-22T00:21:16.858Z,99905.25
2023-07-22T00:24:31.319Z,99896.13
2023-07-22T00:27:47.322Z,99907.53
2023-07-22T00:30:55.981Z,99920.75
2023-07-22T00:34:04.383Z,99902.87
2023-07-22T00:37:19.310Z,99895.97
2023-07-22T00:40:27.331Z,99896.81
2023-07-22T00:43:42.322Z,99896.56
2023-07-22T00:46:44.982Z,99894.28
2023-07-22T00:50:10.342Z,99902.44
2023-07-22T00:53:12.288Z,99912.78
2023-07-22T00:56:27.528Z,99918.53
2023-07-22T01:03:02.401Z,99927.72
2023-07-22T01:06:17.330Z,99951.19
2023-07-22T01:09:19.213Z,99949.72
2023-07-22T01:12:34.325Z,99948.97
2023-07-22T01:15:49.336Z,99965.34
2023-07-22T01:18:51.471Z,99958.81
2023-07-22T01:22:11.331Z,99955.53
2023-07-22T01:25:13.431Z,99952.31
2023-07-22T01:28:29.353Z,99959.34
2023-07-22T01:31:46.336Z,99963.16
2023-07-22T01:35:01.324Z,99976.31
2023-07-22T01:38:16.333Z,99968.44
2023-07-22T01:41:31.335Z,99962.34
2023-07-22T01:44:48.336Z,99970.25
2023-07-22T01:47:56.350Z,99982.31
2023-07-22T01:51:18.338Z,99997.12
2023-07-22T01:54:20.297Z,99994.06
2023-07-22T01:57:35.366Z,99991.69
2023-07-22T02:00:37.204Z,99987.59
2023-07-22T02:03:52.415Z,99994.63
2023-07-22T02:07:00.931Z,99998.69
2023-07-22T02:10:09.366Z,100006.16
2023-07-22T02:13:17.883Z,100008.22
2023-07-22T02:16:26.624Z,100001.91
2023-07-22T02:19:41.345Z,100010.66
2023-07-22T02:22:49.885Z,100024.09
2023-07-22T02:26:04.377Z,100026.38
2023-07-22T02:29:06.256Z,100035.94
2023-07-22T02:32:21.373Z,100035.16
2023-07-22T02:35:36.324Z,100044.22
2023-07-22T02:38:44.345Z,100037.31
2023-07-22T02:41:59.332Z,100028.03
2023-07-22T02:45:15.349Z,100036.97
2023-07-22T02:48:30.329Z,100046.41
2023-07-22T02:51:38.927Z,100051.03
2023-07-22T02:54:48.339Z,100051.59
2023-07-22T02:58:03.350Z,100055.56
2023-07-22T03:01:11.919Z,100053.97
2023-07-22T03:04:26.382Z,100058.47
2023-07-22T03:07:28.309Z,100069.78
2023-07-22T03:10:43.351Z,100072.59
2023-07-22T03:13:51.342Z,100071.81
2023-07-22T03:16:59.855Z,100083.78
2023-07-22T03:20:14.336Z,100072.28
2023-07-22T03:23:29.361Z,100081.75
2023-07-22T03:26:31.230Z,100074.19
2023-07-22T03:29:46.417Z,100076.88
2023-07-22T03:32:49.417Z,100078.81
2023-07-22T03:36:04.377Z,100082.75
2023-07-22T03:39:19.344Z,100076.44
2023-07-22T03:42:27.366Z,100056.44
2023-07-22T03:45:36.100Z,100066.75
2023-07-22T03:48:44.381Z,100079.28
2023-07-22T03:52:06.348Z,100079.16
2023-07-22T03:55:15.080Z,100088.53
2023-07-22T03:58:30.345Z,100084.47
2023-07-22T04:01:32.316Z,100092.16
2023-07-22T04:04:47.362Z,100100.84
2023-07-22T04:07:49.222Z,100089.44
2023-07-22T04:11:05.394Z,100087.06
2023-07-22T04:14:20.405Z,100091.22
2023-07-22T04:17:29.565Z,100082.62
2023-07-22T04:20:44.374Z,100082.84
2023-07-22T04:23:59.359Z,100079.81
2023-07-22T04:27:07.939Z,100061.37
2023-07-22T04:30:22.384Z,100065.13
2023-07-22T04:33:31.082Z,100076.97
2023-07-22T04:36:46.382Z,100083.53
2023-07-22T04:40:01.413Z,100086.78
2023-07-22T04:43:10.365Z,100092.06
2023-07-22T04:46:18.995Z,100086.31
2023-07-22T04:49:33.366Z,100090.19
2023-07-22T04:52:41.384Z,100086.72
2023-07-22T04:55:49.966Z,100083.28
2023-07-22T04:59:04.381Z,100091.97
2023-07-22T05:02:20.401Z,100105.75
2023-07-22T05:05:22.339Z,100104.97
2023-07-22T05:08:37.396Z,100101.13
2023-07-22T05:11:39.222Z,100097.25
2023-07-22T05:14:54.391Z,100103.62
2023-07-22T05:18:03.070Z,100104.38
2023-07-22T05:21:18.401Z,100103.16
2023-07-22T05:24:27.153Z,100115.50
2023-07-22T05:27:35.398Z,100104.84
2023-07-22T05:30:43.956Z,100114.31
2023-07-22T05:33:52.386Z,100120.09
2023-07-22T05:37:01.001Z,100118.00
2023-07-22T05:40:09.404Z,100123.78
2023-07-22T05:43:18.031Z,100114.31
2023-07-22T05:46:33.412Z,100115.28
2023-07-22T05:49:48.631Z,100120.62
2023-07-22T05:53:03.405Z,100124.31
2023-07-22T05:56:11.380Z,100126.94
2023-07-22T05:59:26.433Z,100137.22
2023-07-22T06:02:35.441Z,100138.47
2023-07-22T06:05:50.438Z,100142.66
2023-07-22T06:09:05.459Z,100141.09
2023-07-22T06:12:14.406Z,100144.25
2023-07-22T06:15:23.234Z,100129.94
2023-07-22T06:18:38.409Z,100136.03
2023-07-22T06:21:47.159Z,100134.97
2023-07-22T06:24:55.488Z,100138.63
2023-07-22T06:28:04.216Z,100140.69
2023-07-22T06:31:12.455Z,100144.09
2023-07-22T06:34:27.404Z,100150.25
2023-07-22T06:37:35.486Z,100127.59
2023-07-22T06:40:43.905Z,100139.13
2023-07-22T06:43:52.406Z,100137.47
2023-07-22T06:47:01.036Z,100144.12
2023-07-22T06:50:15.448Z,100138.44
2023-07-22T06:53:32.400Z,100143.75
2023-07-22T06:56:40.411Z,100151.97
2023-07-22T06:59:55.512Z,100149.75
2023-07-22T07:02:57.399Z,100153.81
2023-07-22T07:06:12.410Z,100166.72
2023-07-22T07:09:20.966Z,100163.00
2023-07-22T07:12:35.466Z,100177.47
2023-07-22T07:15:55.562Z,100181.47
2023-07-22T07:18:57.603Z,100173.88
2023-07-22T07:22:12.383Z,100179.84
2023-07-22T07:25:27.445Z,100189.41
2023-07-22T07:28:36.080Z,100189.31
2023-07-22T07:31:51.429Z,100190.97
2023-07-22T07:35:07.359Z,100199.69
2023-07-22T07:38:15.406Z,100189.44
2023-07-22T07:41:23.988Z,100200.22
2023-07-22T07:44:40.418Z,100187.84
2023-07-22T07:47:55.440Z,100207.06
2023-07-22T07:51:17.414Z,100206.87
2023-07-22T07:54:19.385Z,100210.13
2023-07-22T07:57:34.423Z,100213.34
2023-07-22T08:00:42.975Z,100226.56
2023-07-22T08:03:52.470Z,100223.16
2023-07-22T08:07:07.423Z,100228.50
2023-07-22T08:10:09.536Z,100232.31
2023-07-22T08:13:24.406Z,100243.34
2023-07-22T08:16:32.469Z,100247.31
2023-07-22T08:19:41.029Z,100247.56
2023-07-22T08:22:55.527Z,100258.34
2023-07-22T08:26:11.480Z,100263.87
2023-07-22T08:29:13.371Z,100263.94
2023-07-22T08:32:28.459Z,100277.31
2023-07-22T08:35:37.422Z,100286.00
2023-07-22T08:38:45.469Z,100280.91
2023-07-22T08:42:02.463Z,100279.72
2023-07-22T08:45:11.653Z,100289.56
2023-07-22T08:48:22.447Z,100287.56
2023-07-22T08:51:38.766Z,100284.47
2023-07-22T08:54:54.488Z,100288.00
2023-07-22T08:57:57.350Z,100298.97
2023-07-22T09:01:13.523Z,100293.84
2023-07-22T09:04:30.419Z,100295.06
2023-07-22T09:07:39.447Z,100298.97
2023-07-22T09:10:49.162Z,100310.31
2023-07-22T09:14:00.439Z,100307.50
2023-07-22T09:17:15.452Z,100300.72
2023-07-22T09:20:30.476Z,100311.00
2023-07-22T09:23:46.472Z,100305.78
2023-07-22T09:26:55.488Z,100317.94
2023-07-22T09:30:30.446Z,100303.78
2023-07-22T09:33:45.459Z,100323.44
2023-07-22T09:36:52.222Z,100319.41
2023-07-22T09:40:07.474Z,100310.16
2023-07-22T09:43:12.954Z,100306.97
2023-07-22T09:46:27.940Z,100299.97
2023-07-22T09:49:36.454Z,100304.91
2023-07-22T09:53:02.847Z,100301.75
2023-07-22T09:56:17.464Z,100304.03
2023-07-22T09:59:26.486Z,100306.53
2023-07-22T10:02:42.548Z,100291.72
2023-07-22T10:05:47.521Z,100288.50
2023-07-22T10:09:12.485Z,100289.88
2023-07-22T10:12:21.479Z,100295.50
2023-07-22T10:15:38.500Z,100294.03
2023-07-22T10:18:55.478Z,100300.44
2023-07-22T10:22:11.526Z,100304.72
2023-07-22T10:25:17.106Z,100305.88
2023-07-22T10:28:31.503Z,100307.03
2023-07-22T10:31:46.563Z,100321.16
2023-07-22T10:35:01.462Z,100323.72
2023-07-22T10:38:12.221Z,100316.66
2023-07-22T10:41:23.499Z,100320.28
2023-07-22T10:44:36.710Z,100309.19
2023-07-22T10:48:12.491Z,100305.41
2023-07-22T10:51:20.784Z,100307.16
2023-07-22T10:54:40.519Z,100300.28
2023-07-22T10:58:01.512Z,100300.28
2023-07-22T11:01:34.685Z,100304.69
2023-07-22T11:04:51.232Z,100297.16
2023-07-22T11:08:14.768Z,100302.53
2023-07-22T11:11:46.004Z,100292.59
2023-07-22T11:15:10.505Z,100281.78
2023-07-22T11:18:22.068Z,100282.25
2023-07-22T11:21:30.513Z,100284.78
2023-07-22T11:24:45.545Z,100269.09
2023-07-22T11:28:01.603Z,100270.47
2023-07-22T11:31:10.511Z,100282.75
2023-07-22T11:34:21.717Z,100278.59
2023-07-22T11:37:36.509Z,100268.13
2023-07-22T11:40:54.555Z,100267.16
2023-07-22T11:44:05.132Z,100268.09
2023-07-22T11:47:15.519Z,100272.22
2023-07-22T11:50:41.521Z,100263.06
2023-07-22T11:53:56.019Z,100258.84
2023-07-22T11:57:04.551Z,100261.78
2023-07-22T12:00:13.443Z,100260.22
2023-07-22T12:03:28.542Z,100263.59
2023-07-22T12:06:37.527Z,100257.09
2023-07-22T12:09:49.941Z,100256.69
2023-07-22T12:12:58.526Z,100263.25
2023-07-22T12:16:13.562Z,100249.81
2023-07-22T12:19:22.537Z,100243.28
2023-07-22T12:22:31.096Z,100248.50
2023-07-22T12:25:45.508Z,100241.38
2023-07-22T12:29:00.558Z,100246.09
2023-07-22T12:32:09.513Z,100242.12
2023-07-22T12:35:24.542Z,100249.84
2023-07-22T12:38:33.676Z,100248.38
2023-07-22T12:41:48.546Z,100238.16
2023-07-22T12:44:57.593Z,100240.16
2023-07-22T12:48:06.447Z,100240.94
2023-07-22T12:51:29.182Z,100226.50
2023-07-22T12:54:38.136Z,100234.06
2023-07-22T12:57:46.530Z,100228.56
2023-07-22T13:00:55.241Z,100230.63
2023-07-22T13:04:10.533Z,100228.38
2023-07-22T13:07:19.580Z,100226.13
2023-07-22T13:10:29.285Z,100222.88
2023-07-22T13:13:37.619Z,100213.97
2023-07-22T13:16:52.586Z,100223.69
2023-07-22T13:20:07.538Z,100225.25
2023-07-22T13:23:15.561Z,100213.31
2023-07-22T13:26:30.536Z,100199.03
2023-07-22T13:29:39.172Z,100202.91
2023-07-22T13:32:47.672Z,100199.63
2023-07-22T13:35:57.749Z,100213.34
2023-07-22T13:39:06.561Z,100215.69
2023-07-22T13:42:15.115Z,100205.06
2023-07-22T13:45:29.529Z,100208.56
2023-07-22T13:48:44.553Z,100217.84
2023-07-22T13:52:09.553Z,100216.87
2023-07-22T13:55:24.569Z,100217.56
2023-07-22T13:58:33.168Z,100215.59
2023-07-22T14:01:41.582Z,100207.75
2023-07-22T14:04:52.130Z,100197.75
2023-07-22T14:08:06.598Z,100193.50
2023-07-22T14:11:21.550Z,100199.25
2023-07-22T14:14:36.575Z,100209.66
2023-07-22T14:17:45.168Z,100201.00
2023-07-22T14:21:00.584Z,100198.50
2023-07-22T14:24:02.444Z,100202.38
2023-07-22T14:27:17.617Z,100188.63
2023-07-22T14:30:32.559Z,100193.37
2023-07-22T14:33:41.595Z,100187.47
2023-07-22T14:36:56.561Z,100183.66
2023-07-22T14:39:58.593Z,100184.41
2023-07-22T14:43:13.576Z,100173.25
2023-07-22T14:46:22.169Z,100179.94
2023-07-22T14:49:30.589Z,100182.59
2023-07-22T14:52:45.898Z,100176.84
2023-07-22T14:55:54.580Z,100181.38
2023-07-22T14:59:03.219Z,100173.78
2023-07-22T15:02:17.578Z,100170.19
2023-07-22T15:05:25.583Z,100166.16
2023-07-22T15:08:34.307Z,100163.06
2023-07-22T15:11:49.598Z,100164.28
2023-07-22T15:15:04.604Z,100180.25
2023-07-22T15:18:06.577Z,100173.03
2023-07-22T15:21:22.986Z,100171.72
2023-07-22T15:24:37.653Z,100159.84
2023-07-22T15:27:48.759Z,100157.03
2023-07-22T15:31:03.765Z,100158.84
2023-07-22T15:34:12.622Z,100162.03
2023-07-22T15:37:21.182Z,100158.22
2023-07-22T15:40:29.600Z,100164.16
2023-07-22T15:43:38.230Z,100169.22
2023-07-22T15:46:52.658Z,100178.50
2023-07-22T15:50:01.228Z,100186.53
2023-07-22T15:53:23.609Z,100188.88
2023-07-22T15:56:25.709Z,100180.31
2023-07-22T15:59:40.687Z,100176.78
2023-07-22T16:02:48.664Z,100180.03
2023-07-22T16:05:57.251Z,100177.03
2023-07-22T16:09:05.596Z,100188.50
2023-07-22T16:12:14.159Z,100187.38
2023-07-22T16:15:22.598Z,100181.88
2023-07-22T16:18:31.507Z,100171.31
2023-07-22T16:21:46.618Z,100163.44
2023-07-22T16:24:54.612Z,100170.50
2023-07-22T16:28:09.601Z,100167.72
2023-07-22T16:31:11.593Z,100159.53
2023-07-22T16:34:26.622Z,100164.25
2023-07-22T16:37:28.560Z,100156.81
2023-07-22T16:40:43.647Z,100154.06
2023-07-22T16:44:05.653Z,100145.41
2023-07-22T16:47:20.651Z,100146.19
2023-07-22T16:50:35.685Z,100151.31
2023-07-22T16:53:50.696Z,100161.12
2023-07-22T16:56:59.622Z,100156.88
2023-07-22T17:00:15.626Z,100155.25
2023-07-22T17:03:30.797Z,100157.25
2023-07-22T17:06:32.736Z,100154.88
2023-07-22T17:09:47.657Z,100165.87
2023-07-22T17:13:02.626Z,100158.03
2023-07-22T17:16:04.883Z,100157.66
2023-07-22T17:19:19.701Z,100152.16
2023-07-22T17:22:34.642Z,100145.87
2023-07-22T17:25:43.294Z,100149.00
2023-07-22T17:28:59.644Z,100150.56
2023-07-22T17:32:08.677Z,100151.00
2023-07-22T17:35:17.707Z,100151.75
2023-07-22T17:38:32.626Z,100141.56
2023-07-22T17:41:47.653Z,100151.38
2023-07-22T17:45:02.663Z,100151.81
2023-07-22T17:48:17.817Z,100137.66
2023-07-22T17:51:32.662Z,100147.09
2023-07-22T17:54:47.669Z,100154.16
2023-07-22T17:58:02.893Z,100159.66
2023-07-22T18:01:04.907Z,100150.22
2023-07-22T18:04:19.655Z,100165.13
2023-07-22T18:07:34.707Z,100163.56
2023-07-22T18:10:50.182Z,100170.25
2023-07-22T18:14:05.701Z,100157.31
2023-07-22T18:17:20.676Z,100159.63
2023-07-22T18:20:29.727Z,100165.91
2023-07-22T18:23:45.695Z,100162.34
2023-07-22T18:26:54.677Z,100176.84
2023-07-22T18:30:10.675Z,100187.00
2023-07-22T18:33:12.889Z,100191.69
2023-07-22T18:36:27.662Z,100197.19
2023-07-22T18:39:29.856Z,100195.19
2023-07-22T18:42:45.660Z,100192.78
2023-07-22T18:45:47.960Z,100200.66
2023-07-22T18:49:02.672Z,100199.84
2023-07-22T18:52:24.683Z,100197.84
2023-07-22T18:55:33.453Z,100208.41
2023-07-22T18:58:49.684Z,100224.88
2023-07-22T19:02:00.099Z,100227.97
2023-07-22T19:05:08.660Z,100225.97
2023-07-22T19:08:23.749Z,100232.28
2023-07-22T19:11:32.712Z,100249.88
2023-07-22T19:14:40.696Z,100263.16
2023-07-22T19:17:49.280Z,100268.59
2023-07-22T19:21:08.689Z,100276.84
2023-07-22T19:24:23.710Z,100265.00
2023-07-22T19:27:38.793Z,100270.41
2023-07-22T19:30:47.683Z,100272.56
2023-07-22T19:34:02.717Z,100266.66
2023-07-22T19:37:17.692Z,100263.81
2023-07-22T19:40:30.393Z,100268.16
2023-07-22T19:43:38.677Z,100276.34
2023-07-22T19:46:47.222Z,100280.94
2023-07-22T19:49:55.682Z,100278.41
2023-07-22T19:53:17.708Z,100267.97
2023-07-22T19:56:26.498Z,100275.63
2023-07-22T19:59:35.741Z,100279.56
2023-07-22T20:02:51.785Z,100279.19
2023-07-22T20:06:01.711Z,100290.59
2023-07-22T20:09:17.706Z,100290.91
2023-07-22T20:12:25.704Z,100294.19
2023-07-22T20:15:44.763Z,100299.34
2023-07-22T20:18:53.729Z,100303.69
2023-07-22T20:22:02.518Z,100305.78
2023-07-22T20:25:11.716Z,100308.88
2023-07-22T20:28:20.475Z,100311.72
2023-07-22T20:31:36.772Z,100323.12
2023-07-22T20:34:39.054Z,100319.13
2023-07-22T20:37:53.703Z,100319.97
2023-07-22T20:41:12.717Z,100320.75
2023-07-22T20:44:21.715Z,100330.31
2023-07-22T20:47:30.697Z,100320.56
2023-07-22T20:50:40.714Z,100322.50
2023-07-22T20:53:56.224Z,100320.97
2023-07-22T20:57:11.743Z,100323.25
2023-07-22T21:00:20.473Z,100323.66
2023-07-22T21:03:35.776Z,100315.34
2023-07-22T21:06:43.725Z,100298.84
2023-07-22T21:09:52.292Z,100306.03
2023-07-22T21:13:00.715Z,100315.03
2023-07-22T21:16:09.372Z,100316.97
2023-07-22T21:19:17.710Z,100317.31
2023-07-22T21:22:32.722Z,100320.12
2023-07-22T21:25:41.254Z,100320.19
2023-07-22T21:28:55.718Z,100329.94
2023-07-22T21:32:03.747Z,100318.56
2023-07-22T21:35:19.756Z,100321.19
2023-07-22T21:38:28.742Z,100320.69
2023-07-22T21:41:37.232Z,100326.66
2023-07-22T21:44:54.760Z,100325.00
2023-07-22T21:48:09.754Z,100326.56
2023-07-22T21:51:31.731Z,100324.53
2023-07-22T21:54:39.799Z,100321.41
2023-07-22T21:57:48.279Z,100325.94
2023-07-22T22:01:02.786Z,100331.28
2023-07-22T22:04:04.823Z,100330.84
2023-07-22T22:07:19.706Z,100327.78
2023-07-22T22:10:21.627Z,100328.53
2023-07-22T22:13:36.729Z,100335.97
2023-07-22T22:16:51.781Z,100340.88
2023-07-22T22:19:53.719Z,100338.41
2023-07-22T22:23:08.760Z,100329.91
2023-07-22T22:26:10.688Z,100334.97
2023-07-22T22:29:25.755Z,100333.78
2023-07-22T22:32:52.870Z,100341.75
2023-07-22T22:36:01.305Z,100336.09
2023-07-22T22:39:09.733Z,100341.34
2023-07-22T22:42:24.747Z,100344.63
2023-07-22T22:45:33.732Z,100351.34
2023-07-22T22:48:48.733Z,100357.25
2023-07-22T22:52:06.102Z,100352.53
2023-07-22T22:55:14.754Z,100357.03
2023-07-22T22:58:23.310Z,100355.63
2023-07-22T23:01:37.772Z,100350.06
2023-07-22T23:04:52.782Z,100357.78
2023-07-22T23:08:01.264Z,100363.84
2023-07-22T23:11:09.730Z,100361.81
2023-07-22T23:14:24.754Z,100362.09
2023-07-22T23:17:39.872Z,100366.50
2023-07-22T23:20:41.842Z,100369.28
2023-07-22T23:23:56.761Z,100369.78
2023-07-22T23:27:05.682Z,100375.06
2023-07-22T23:30:14.740Z,100369.91
2023-07-22T23:33:29.767Z,100370.38
2023-07-22T23:36:38.328Z,100371.56
2023-07-22T23:39:46.772Z,100363.75
2023-07-22T23:43:01.763Z,100372.16
2023-07-22T23:46:09.816Z,100374.34
2023-07-22T23:49:24.775Z,100383.50
2023-07-22T23:52:40.020Z,100374.66
2023-07-22T23:55:48.770Z,100390.97
2023-07-22T23:59:03.797Z,100384.12
